createdAt,value
2023-03-21T00:00:55.430Z,1.30
2023-03-21T00:03:23.694Z,2.58
2023-03-21T00:05:53.626Z,0.73
2023-03-21T00:08:25.272Z,0.85
2023-03-21T00:10:57.367Z,0.60
2023-03-21T00:13:26.523Z,0.90
2023-03-21T00:16:05.607Z,0.45
2023-03-21T00:18:42.024Z,0.75
2023-03-21T00:21:39.537Z,0.65
2023-03-21T00:24:05.724Z,0.77
2023-03-21T00:26:34.153Z,0.70
2023-03-21T00:29:02.144Z,1.33
2023-03-21T00:31:30.318Z,0.65
2023-03-21T00:33:58.341Z,0.80
2023-03-21T00:36:26.954Z,1.02
2023-03-21T00:38:55.659Z,0.57
2023-03-21T00:41:41.020Z,2.42
2023-03-21T00:44:13.763Z,2.17
2023-03-21T00:46:54.186Z,1.25
2023-03-21T00:49:25.351Z,0.52
2023-03-21T00:51:55.375Z,0.30
2023-03-21T00:54:26.055Z,0.40
2023-03-21T00:56:55.621Z,0.40
2023-03-21T00:59:23.671Z,0.77
2023-03-21T01:01:53.605Z,0.30
2023-03-21T01:04:26.434Z,0.40
2023-03-21T01:06:55.571Z,0.70
2023-03-21T01:09:25.497Z,0.60
2023-03-21T01:11:55.342Z,0.40
2023-03-21T01:14:24.265Z,0.40
2023-03-21T01:16:55.262Z,0.60
2023-03-21T01:19:40.636Z,0.40
2023-03-21T01:22:12.904Z,1.48
2023-03-21T01:24:52.398Z,0.32
2023-03-21T01:27:23.795Z,0.40
2023-03-21T01:29:52.245Z,0.75
2023-03-21T01:32:20.395Z,0.68
2023-03-21T01:34:48.455Z,0.30
2023-03-21T01:37:17.812Z,0.38
2023-03-21T01:39:49.222Z,0.47
2023-03-21T01:42:17.385Z,1.67
2023-03-21T01:44:58.419Z,0.68
2023-03-21T01:47:34.297Z,0.30
2023-03-21T01:50:22.205Z,0.47
2023-03-21T01:53:04.121Z,0.40
2023-03-21T01:55:36.478Z,0.38
2023-03-21T01:58:12.788Z,0.63
2023-03-21T02:01:02.813Z,0.40
2023-03-21T02:03:50.613Z,0.50
2023-03-21T02:06:45.537Z,0.47
2023-03-21T02:09:34.588Z,0.68
2023-03-21T02:12:04.736Z,0.40
2023-03-21T02:14:35.875Z,0.30
2023-03-21T02:17:20.089Z,0.40
2023-03-21T02:20:16.003Z,0.30
2023-03-21T02:23:08.306Z,0.45
2023-03-21T02:26:12.224Z,0.40
2023-03-21T02:28:46.979Z,0.55
2023-03-21T02:31:28.377Z,1.75
2023-03-21T02:34:32.819Z,0.32
2023-03-21T02:37:15.264Z,0.60
2023-03-21T02:40:00.890Z,1.00
2023-03-21T02:42:35.954Z,0.43
2023-03-21T02:45:12.279Z,0.50
2023-03-21T02:47:49.769Z,0.50
2023-03-21T02:50:24.815Z,0.50
2023-03-21T02:52:55.990Z,0.45
2023-03-21T02:55:27.105Z,0.40
2023-03-21T02:58:12.301Z,0.50
2023-03-21T03:00:46.196Z,0.40
2023-03-21T03:03:33.410Z,0.40
2023-03-21T03:06:06.447Z,0.30
2023-03-21T03:08:56.328Z,0.60
2023-03-21T03:11:32.878Z,0.43
2023-03-21T03:14:49.965Z,0.40
2023-03-21T03:17:38.524Z,0.30
2023-03-21T03:20:25.693Z,0.40
2023-03-21T03:23:01.335Z,0.82
2023-03-21T03:25:42.825Z,0.40
2023-03-21T03:28:18.262Z,1.10
2023-03-21T03:31:01.240Z,0.80
2023-03-21T03:33:43.840Z,0.65
2023-03-21T03:36:30.120Z,0.30
2023-03-21T03:39:04.519Z,0.43
2023-03-21T03:42:01.634Z,0.30
2023-03-21T03:44:32.116Z,0.77
2023-03-21T03:47:10.708Z,0.45
2023-03-21T03:49:49.247Z,0.60
2023-03-21T03:52:22.698Z,0.50
2023-03-21T03:54:57.752Z,0.52
2023-03-21T03:57:28.823Z,0.40
2023-03-21T03:59:57.404Z,0.30
2023-03-21T04:02:30.198Z,0.40
2023-03-21T04:04:58.376Z,0.30
2023-03-21T04:07:27.800Z,0.60
2023-03-21T04:09:59.113Z,0.52
2023-03-21T04:12:29.807Z,0.45
2023-03-21T04:15:12.626Z,0.40
2023-03-21T04:17:45.440Z,0.50
2023-03-21T04:20:20.930Z,0.40
2023-03-21T04:22:52.266Z,0.30
2023-03-21T04:25:32.373Z,0.40
2023-03-21T04:28:03.361Z,0.50
2023-03-21T04:30:39.803Z,0.65
2023-03-21T04:33:14.494Z,0.40
2023-03-21T04:35:50.630Z,0.30
2023-03-21T04:38:19.476Z,0.40
2023-03-21T04:40:47.381Z,0.50
2023-03-21T04:43:16.827Z,0.52
2023-03-21T04:45:45.041Z,0.55
2023-03-21T04:48:14.463Z,0.52
2023-03-21T04:50:42.625Z,0.50
2023-03-21T04:53:10.724Z,0.43
2023-03-21T04:55:39.209Z,0.50
2023-03-21T04:58:07.693Z,0.38
2023-03-21T05:00:38.460Z,0.50
2023-03-21T05:03:09.138Z,0.90
2023-03-21T05:05:38.871Z,0.50
2023-03-21T05:08:07.793Z,0.75
2023-03-21T05:10:36.038Z,0.50
2023-03-21T05:13:04.181Z,0.40
2023-03-21T05:15:33.959Z,1.08
2023-03-21T05:18:11.019Z,0.40
2023-03-21T05:20:54.121Z,0.43
2023-03-21T05:23:22.734Z,1.77
2023-03-21T05:25:51.857Z,0.40
2023-03-21T05:28:36.722Z,0.60
2023-03-21T05:31:05.860Z,0.43
2023-03-21T05:33:35.617Z,0.60
2023-03-21T05:36:03.899Z,0.45
2023-03-21T05:38:33.409Z,0.50
2023-03-21T05:41:01.431Z,0.38
2023-03-21T05:43:30.329Z,0.28
2023-03-21T05:45:58.544Z,0.35
2023-03-21T05:48:29.552Z,0.55
2023-03-21T05:51:09.592Z,0.30
2023-03-21T05:53:37.951Z,0.63
2023-03-21T05:56:06.902Z,0.40
2023-03-21T05:58:51.587Z,0.50
2023-03-21T06:01:20.480Z,0.70
2023-03-21T06:03:56.905Z,0.38
2023-03-21T06:06:29.168Z,0.40
2023-03-21T06:09:00.518Z,0.35
2023-03-21T06:11:32.102Z,2.60
2023-03-21T06:14:22.218Z,0.75
2023-03-21T06:17:07.446Z,0.28
2023-03-21T06:19:41.366Z,0.40
2023-03-21T06:22:16.898Z,0.50
2023-03-21T06:24:45.521Z,2.75
2023-03-21T06:27:13.982Z,0.55
2023-03-21T06:29:51.104Z,0.40
2023-03-21T06:32:19.851Z,0.20
2023-03-21T06:34:50.581Z,0.45
2023-03-21T06:37:20.990Z,0.73
2023-03-21T06:39:48.936Z,0.40
2023-03-21T06:42:17.960Z,0.45
2023-03-21T06:44:46.338Z,0.50
2023-03-21T06:47:16.326Z,0.68
2023-03-21T06:49:46.409Z,0.88
2023-03-21T06:52:14.727Z,0.57
2023-03-21T06:54:44.799Z,11.30
2023-03-21T06:57:15.523Z,0.60
2023-03-21T06:59:43.604Z,0.50
2023-03-21T07:02:22.421Z,0.50
2023-03-21T07:05:09.406Z,0.60
2023-03-21T07:07:37.997Z,0.90
2023-03-21T07:10:08.465Z,0.93
2023-03-21T07:12:45.109Z,0.60
2023-03-21T07:15:20.779Z,0.55
2023-03-21T07:17:48.765Z,0.70
2023-03-21T07:20:16.919Z,0.90
2023-03-21T07:22:45.001Z,1.27
2023-03-21T07:25:14.453Z,1.02
2023-03-21T07:27:42.680Z,0.90
2023-03-21T07:30:12.306Z,0.73
2023-03-21T07:32:40.898Z,1.52
2023-03-21T07:35:10.401Z,0.73
2023-03-21T07:37:38.671Z,0.80
2023-03-21T07:40:10.576Z,0.63
2023-03-21T07:42:42.078Z,1.33
2023-03-21T07:45:16.009Z,0.60
2023-03-21T07:47:46.511Z,1.25
2023-03-21T07:50:14.851Z,0.70
2023-03-21T07:52:43.128Z,1.60
2023-03-21T07:55:11.083Z,0.60
2023-03-21T07:57:41.010Z,0.93
2023-03-21T08:00:10.963Z,2.95
2023-03-21T08:02:43.272Z,0.65
2023-03-21T08:05:12.033Z,2.70
2023-03-21T08:07:40.081Z,1.48
2023-03-21T08:10:10.776Z,2.22
2023-03-21T08:12:40.078Z,2.67
2023-03-21T08:15:09.925Z,0.95
2023-03-21T08:17:39.858Z,0.90
2023-03-21T08:20:10.253Z,2.05
2023-03-21T08:22:38.289Z,0.93
2023-03-21T08:25:10.130Z,1.27
2023-03-21T08:27:38.110Z,2.25
2023-03-21T08:30:09.189Z,3.03
2023-03-21T08:32:38.706Z,0.75
2023-03-21T08:35:10.134Z,1.05
2023-03-21T08:37:38.266Z,2.08
2023-03-21T08:40:11.159Z,0.73
2023-03-21T08:42:39.534Z,1.38
2023-03-21T08:45:10.613Z,4.45
2023-03-21T08:47:38.863Z,1.20
2023-03-21T08:50:09.134Z,1.48
2023-03-21T08:52:37.205Z,1.55
2023-03-21T08:55:06.115Z,1.80
2023-03-21T08:57:34.372Z,0.90
2023-03-21T09:00:02.466Z,1.70
2023-03-21T09:02:31.809Z,3.03
2023-03-21T09:04:59.895Z,0.85
2023-03-21T09:07:27.931Z,0.80
2023-03-21T09:10:08.419Z,3.35
2023-03-21T09:12:44.206Z,0.98
2023-03-21T09:15:13.546Z,1.08
2023-03-21T09:17:43.975Z,0.52
2023-03-21T09:20:18.860Z,2.55
2023-03-21T09:22:47.659Z,0.57
2023-03-21T09:25:16.266Z,0.55
2023-03-21T09:27:45.881Z,1.42
2023-03-21T09:30:16.336Z,0.65
2023-03-21T09:32:49.581Z,1.17
2023-03-21T09:35:18.702Z,0.95
2023-03-21T09:37:47.320Z,1.60
2023-03-21T09:40:20.653Z,0.50
2023-03-21T09:42:59.954Z,3.58
2023-03-21T09:45:38.478Z,0.43
2023-03-21T09:48:22.496Z,0.73
2023-03-21T09:50:50.694Z,0.77
2023-03-21T09:53:23.720Z,2.13
2023-03-21T09:55:51.974Z,1.55
2023-03-21T09:58:27.231Z,0.52
2023-03-21T10:01:05.291Z,0.75
2023-03-21T10:03:36.372Z,0.77
2023-03-21T10:06:11.461Z,0.50
2023-03-21T10:08:42.083Z,0.57
2023-03-21T10:11:16.174Z,1.50
2023-03-21T10:13:49.424Z,0.50
2023-03-21T10:16:21.060Z,0.60
2023-03-21T10:18:51.864Z,1.98
2023-03-21T10:21:51.270Z,0.40
2023-03-21T10:24:14.286Z,0.50
2023-03-21T10:26:44.056Z,1.27
2023-03-21T10:29:16.594Z,0.40
2023-03-21T10:31:46.466Z,1.35
2023-03-21T10:34:19.393Z,0.55
2023-03-21T10:36:48.034Z,12.15
2023-03-21T10:39:26.332Z,139.00
2023-03-21T10:41:55.196Z,113.93
2023-03-21T10:44:23.215Z,112.28
2023-03-21T10:46:53.522Z,82.32
2023-03-21T10:49:23.616Z,59.63
2023-03-21T10:51:54.802Z,53.45
2023-03-21T10:54:29.562Z,39.08
2023-03-21T10:56:59.827Z,33.05
2023-03-21T10:59:36.949Z,23.13
2023-03-21T11:02:06.884Z,21.10
2023-03-21T11:04:38.567Z,20.92
2023-03-21T11:07:08.208Z,16.77
2023-03-21T11:09:48.143Z,13.05
2023-03-21T11:12:17.874Z,14.18
2023-03-21T11:14:47.673Z,11.18
2023-03-21T11:17:25.387Z,15.57
2023-03-21T11:19:58.966Z,12.00
2023-03-21T11:22:30.517Z,8.52
2023-03-21T11:25:01.484Z,7.90
2023-03-21T11:27:30.536Z,9.38
2023-03-21T11:30:02.126Z,6.78
2023-03-21T11:32:34.857Z,5.72
2023-03-21T11:35:07.643Z,7.88
2023-03-21T11:37:40.688Z,5.30
2023-03-21T11:40:21.325Z,4.90
2023-03-21T11:42:51.986Z,4.43
2023-03-21T11:45:22.140Z,6.22
2023-03-21T11:47:51.716Z,3.70
2023-03-21T11:50:28.428Z,3.45
2023-03-21T11:53:26.640Z,7.65
2023-03-21T11:56:08.562Z,4.28
2023-03-21T11:58:51.994Z,3.13
2023-03-21T12:01:29.054Z,3.33
2023-03-21T12:04:05.252Z,4.72
2023-03-21T12:06:38.459Z,3.05
2023-03-21T12:09:17.615Z,2.88
2023-03-21T12:12:01.202Z,2.75
2023-03-21T12:14:37.057Z,3.78
2023-03-21T12:17:15.020Z,2.92
2023-03-21T12:20:07.699Z,3.05
2023-03-21T12:22:44.735Z,3.00
2023-03-21T12:25:18.770Z,1.80
2023-03-21T12:28:02.793Z,7.68
2023-03-21T12:30:42.844Z,2.63
2023-03-21T12:33:36.642Z,1.70
2023-03-21T12:36:17.740Z,2.03
2023-03-21T12:38:59.208Z,2.78
2023-03-21T12:41:33.639Z,2.90
2023-03-21T12:44:05.551Z,1.75
2023-03-21T12:46:37.583Z,1.48
2023-03-21T12:49:11.155Z,3.13
2023-03-21T12:51:43.071Z,2.63
2023-03-21T12:54:19.052Z,1.15
2023-03-21T12:56:53.255Z,2.95
2023-03-21T12:59:28.597Z,1.27
2023-03-21T13:02:00.925Z,3.00
2023-03-21T13:04:45.182Z,1.67
2023-03-21T13:07:20.107Z,1.25
2023-03-21T13:09:51.261Z,0.77
2023-03-21T13:12:45.087Z,2.63
2023-03-21T13:15:38.110Z,2.65
2023-03-21T13:18:14.356Z,1.40
2023-03-21T13:20:47.398Z,1.13
2023-03-21T13:23:15.556Z,1.23
2023-03-21T13:25:48.151Z,3.03
2023-03-21T13:28:22.272Z,3.38
2023-03-21T13:30:51.887Z,4.05
2023-03-21T13:33:25.919Z,2.25
2023-03-21T13:36:05.419Z,3.95
2023-03-21T13:38:35.145Z,3.08
2023-03-21T13:41:09.423Z,3.55
2023-03-21T13:43:44.561Z,0.93
2023-03-21T13:46:14.514Z,4.10
2023-03-21T13:48:57.790Z,3.67
2023-03-21T13:51:52.579Z,6.07
2023-03-21T13:54:25.472Z,3.03
2023-03-21T13:56:58.774Z,4.45
2023-03-21T13:59:46.107Z,5.03
2023-03-21T14:02:29.642Z,2.45
2023-03-21T14:05:06.371Z,2.63
2023-03-21T14:07:36.899Z,3.05
2023-03-21T14:10:09.853Z,2.75
2023-03-21T14:12:43.495Z,2.22
2023-03-21T14:15:19.229Z,1.65
2023-03-21T14:17:52.237Z,1.75
2023-03-21T14:20:23.480Z,1.20
2023-03-21T14:22:51.491Z,1.23
2023-03-21T14:25:21.850Z,2.38
2023-03-21T14:27:54.617Z,1.42
2023-03-21T14:30:27.046Z,1.95
2023-03-21T14:32:57.462Z,1.90
2023-03-21T14:35:31.288Z,0.40
2023-03-21T14:38:02.856Z,0.70
2023-03-21T14:40:31.018Z,1.17
2023-03-21T14:43:05.625Z,0.75
2023-03-21T14:45:37.463Z,2.95
2023-03-21T14:48:09.929Z,3.20
2023-03-21T14:50:44.000Z,1.75
2023-03-21T14:53:16.997Z,4.07
2023-03-21T14:55:47.688Z,1.48
2023-03-21T14:58:19.254Z,3.65
2023-03-21T15:00:50.789Z,2.00
2023-03-21T15:03:20.032Z,0.45
2023-03-21T15:05:48.054Z,0.60
2023-03-21T15:08:18.634Z,2.22
2023-03-21T15:11:06.911Z,2.75
2023-03-21T15:13:41.328Z,2.97
2023-03-21T15:16:10.997Z,4.63
2023-03-21T15:18:41.209Z,1.17
2023-03-21T15:21:15.057Z,0.93
2023-03-21T15:23:45.691Z,2.65
2023-03-21T15:26:16.898Z,1.02
2023-03-21T15:28:49.433Z,0.70
2023-03-21T15:31:19.844Z,0.47
2023-03-21T15:33:48.995Z,2.15
2023-03-21T15:36:22.990Z,1.30
2023-03-21T15:38:51.591Z,1.85
2023-03-21T15:41:29.138Z,2.67
2023-03-21T15:44:07.264Z,3.35
2023-03-21T15:46:42.820Z,6.07
2023-03-21T15:49:19.248Z,2.72
2023-03-21T15:51:50.512Z,2.15
2023-03-21T15:54:25.086Z,2.40
2023-03-21T15:56:56.013Z,1.67
2023-03-21T15:59:28.519Z,0.40
2023-03-21T16:01:56.610Z,2.03
2023-03-21T16:04:25.876Z,6.22
2023-03-21T16:06:58.615Z,7.20
2023-03-21T16:09:27.014Z,7.65
2023-03-21T16:11:57.163Z,5.40
2023-03-21T16:14:28.664Z,6.15
2023-03-21T16:16:57.359Z,3.63
2023-03-21T16:19:27.665Z,5.57
2023-03-21T16:21:55.575Z,4.18
2023-03-21T16:24:23.506Z,3.75
2023-03-21T16:26:53.446Z,6.90
2023-03-21T16:29:22.514Z,1.75
2023-03-21T16:31:51.962Z,3.97
2023-03-21T16:34:19.940Z,6.07
2023-03-21T16:36:48.011Z,1.67
2023-03-21T16:39:19.255Z,2.35
2023-03-21T16:41:47.968Z,4.80
2023-03-21T16:44:16.043Z,6.13
2023-03-21T16:46:44.434Z,6.28
2023-03-21T16:49:21.585Z,3.63
2023-03-21T16:51:49.635Z,4.07
2023-03-21T16:54:18.261Z,3.70
2023-03-21T16:56:49.925Z,1.90
2023-03-21T16:59:17.917Z,2.65
2023-03-21T17:01:48.118Z,4.90
2023-03-21T17:04:18.332Z,9.93
2023-03-21T17:06:47.965Z,6.15
2023-03-21T17:09:17.681Z,2.22
2023-03-21T17:11:45.716Z,2.65
2023-03-21T17:14:16.253Z,1.73
2023-03-21T17:16:44.888Z,2.88
2023-03-21T17:19:19.318Z,0.50
2023-03-21T17:21:47.601Z,4.10
2023-03-21T17:24:15.618Z,0.63
2023-03-21T17:26:43.519Z,5.38
2023-03-21T17:29:14.054Z,1.05
2023-03-21T17:31:42.555Z,1.17
2023-03-21T17:34:11.156Z,1.08
2023-03-21T17:36:42.857Z,2.92
2023-03-21T17:39:19.529Z,3.10
2023-03-21T17:41:47.640Z,4.60
2023-03-21T17:44:15.784Z,1.48
2023-03-21T17:46:43.920Z,2.40
2023-03-21T17:49:14.843Z,1.23
2023-03-21T17:51:46.834Z,1.45
2023-03-21T17:54:15.069Z,2.80
2023-03-21T17:56:43.120Z,3.13
2023-03-21T17:59:14.261Z,2.45
2023-03-21T18:01:42.915Z,2.47
2023-03-21T18:04:11.212Z,1.92
2023-03-21T18:06:39.704Z,0.80
2023-03-21T18:09:11.680Z,1.48
2023-03-21T18:11:41.265Z,2.05
2023-03-21T18:14:17.647Z,2.35
2023-03-21T18:16:47.262Z,1.67
2023-03-21T18:19:15.641Z,1.60
2023-03-21T18:21:45.853Z,0.90
2023-03-21T18:24:16.226Z,1.00
2023-03-21T18:26:46.137Z,1.95
2023-03-21T18:30:17.579Z,1.02
2023-03-21T18:32:08.465Z,2.35
2023-03-21T18:34:38.797Z,1.35
2023-03-21T18:37:08.044Z,2.53
2023-03-21T18:39:38.548Z,0.82
2023-03-21T18:42:07.213Z,0.80
2023-03-21T18:44:45.545Z,0.88
2023-03-21T18:47:13.744Z,1.40
2023-03-21T18:50:12.753Z,3.88
2023-03-21T18:52:30.064Z,2.30
2023-03-21T18:54:59.555Z,4.93
2023-03-21T18:57:37.399Z,2.80
2023-03-21T19:00:12.571Z,4.78
2023-03-21T19:02:45.617Z,1.25
2023-03-21T19:05:15.506Z,1.38
2023-03-21T19:07:43.449Z,5.22
2023-03-21T19:10:18.163Z,0.98
2023-03-21T19:12:47.765Z,2.78
2023-03-21T19:15:17.873Z,1.88
2023-03-21T19:20:34.147Z,1.00
2023-03-21T19:23:02.304Z,2.72
2023-03-21T19:25:32.091Z,0.93
2023-03-21T19:28:00.105Z,1.45
2023-03-21T19:30:28.017Z,1.83
2023-03-21T19:32:56.340Z,1.38
2023-03-21T19:35:25.190Z,2.20
2023-03-21T19:37:53.232Z,2.83
2023-03-21T19:40:21.514Z,3.70
2023-03-21T19:42:50.828Z,1.08
2023-03-21T19:45:19.066Z,2.63
2023-03-21T19:47:47.227Z,3.65
2023-03-21T19:53:03.697Z,1.88
2023-03-21T19:55:34.283Z,1.58
2023-03-21T19:58:03.793Z,4.38
2023-03-21T20:00:31.951Z,1.35
2023-03-21T20:03:00.204Z,0.68
2023-03-21T20:05:28.564Z,2.17
2023-03-21T20:07:57.411Z,1.25
2023-03-21T20:10:27.548Z,1.23
2023-03-21T20:12:55.737Z,0.95
2023-03-21T20:15:28.430Z,1.80
2023-03-21T20:17:57.886Z,1.52
2023-03-21T20:20:28.557Z,2.13
2023-03-21T20:23:06.692Z,1.00
2023-03-21T20:25:35.585Z,1.42
2023-03-21T20:28:15.849Z,0.38
2023-03-21T20:30:51.458Z,1.88
2023-03-21T20:33:19.717Z,1.23
2023-03-21T20:38:37.689Z,0.60
2023-03-21T20:41:07.588Z,0.75
2023-03-21T20:44:28.238Z,2.05
2023-03-21T20:46:25.545Z,1.25
2023-03-21T20:48:53.664Z,2.20
2023-03-21T20:54:11.206Z,1.15
2023-03-21T20:56:39.238Z,1.10
2023-03-21T20:59:17.699Z,4.40
2023-03-21T21:01:53.200Z,0.63
2023-03-21T21:04:22.367Z,1.02
2023-03-21T21:06:51.384Z,1.58
2023-03-21T21:09:19.346Z,1.63
2023-03-21T21:14:37.365Z,2.03
2023-03-21T21:17:24.627Z,0.75
2023-03-21T21:19:55.623Z,1.10
2023-03-21T21:22:23.647Z,1.40
2023-03-21T21:24:51.900Z,0.50
2023-03-21T21:27:19.990Z,1.55
2023-03-21T21:29:50.013Z,2.97
2023-03-21T21:32:21.449Z,0.75
2023-03-21T21:34:49.584Z,0.82
2023-03-21T21:37:17.518Z,1.00
2023-03-21T21:39:45.703Z,0.73
2023-03-21T21:42:16.331Z,0.90
2023-03-21T21:44:46.732Z,2.08
2023-03-21T21:47:15.495Z,1.52
2023-03-21T21:49:44.820Z,0.85
2023-03-21T21:52:13.774Z,1.13
2023-03-21T21:54:45.721Z,1.10
2023-03-21T21:57:14.686Z,0.45
2023-03-21T21:59:42.896Z,0.95
2023-03-21T22:02:13.897Z,0.60
2023-03-21T22:04:42.117Z,0.63
2023-03-21T22:07:14.683Z,1.55
2023-03-21T22:09:44.455Z,0.80
2023-03-21T22:12:12.485Z,1.15
2023-03-21T22:14:40.738Z,0.82
2023-03-21T22:17:08.970Z,1.27
2023-03-21T22:19:39.149Z,1.05
2023-03-21T22:22:08.138Z,1.10
2023-03-21T22:24:37.526Z,1.00
2023-03-21T22:27:05.986Z,0.93
2023-03-21T22:29:33.905Z,1.25
2023-03-21T22:32:01.929Z,1.10
2023-03-21T22:34:30.025Z,0.82
2023-03-21T22:36:59.627Z,0.57
2023-03-21T22:39:28.672Z,0.73
2023-03-21T22:42:00.869Z,1.15
2023-03-21T22:44:34.423Z,0.82
2023-03-21T22:47:03.234Z,1.20
2023-03-21T22:49:31.786Z,1.02
2023-03-21T22:52:00.251Z,1.55
2023-03-21T22:54:28.721Z,1.08
2023-03-21T22:56:58.226Z,1.15
2023-03-21T22:59:26.451Z,0.60
2023-03-21T23:01:54.892Z,0.63
2023-03-21T23:04:23.018Z,0.63
2023-03-21T23:06:51.342Z,0.55
2023-03-21T23:09:19.407Z,0.70
2023-03-21T23:11:49.566Z,0.52
2023-03-21T23:14:20.185Z,0.98
2023-03-21T23:16:49.643Z,1.30
2023-03-21T23:19:19.946Z,0.43
2023-03-21T23:21:49.082Z,0.73
2023-03-21T23:24:17.284Z,1.58
2023-03-21T23:26:45.361Z,0.50
2023-03-21T23:29:13.943Z,0.98
2023-03-21T23:31:43.446Z,0.50
2023-03-21T23:34:12.134Z,0.45
2023-03-21T23:36:40.937Z,1.33
2023-03-21T23:39:09.215Z,0.55
2023-03-21T23:41:37.224Z,1.58
2023-03-21T23:44:06.000Z,1.65
2023-03-21T23:46:34.124Z,0.77
2023-03-21T23:49:03.803Z,0.50
2023-03-21T23:51:31.764Z,0.60
2023-03-21T23:53:59.756Z,0.45
2023-03-21T23:56:28.687Z,1.58
2023-03-21T23:58:58.917Z,0.35
